Flight Track Log - Related Links

Times and Time Zones

All times are in EST time to prevent confusion due to time zone crossing. See the UAL4457 flight status page for this flight to view local times or setup timezone preferences in your user account.

Time Position Orientation Groundspeed Altitude Reporting Facility
EST Latitude Longitude Course Direction KTS MPH feet Rate Location/Type
Thu 03:12:40 PM 29.9839 -95.3553 34° Northeast 154 177 700  Level Houston Center
Thu 03:14:07 PM 30.0458 -95.3367 15° North 188 216 2,900 1,289 Climbing Houston Center
Thu 03:15:09 PM 30.1022 -95.3072 24° Northeast 206 237 3,900 726 Climbing Houston Center
Thu 03:16:00 PM 30.3454 -94.9232 32° Northeast  Level Estimated
Thu 03:16:11 PM 30.1611 -95.2769 24° Northeast 219 252 4,400  Level Houston Center
Thu 03:17:00 PM 30.4355 -94.8182 34° Northeast  Level Estimated
Thu 03:17:14 PM 30.2178 -95.2136 44° Northeast 235 270 6,900  Level Houston Center
Thu 03:18:16 PM 30.2700 -95.1558 44° Northeast 252 290 8,900 1,935 Climbing Houston Center
Thu 03:19:18 PM 30.3264 -95.0933 44° Northeast 273 314 10,900 1,258 Climbing Houston Center
Thu 03:20:20 PM 30.3892 -95.0244 43° Northeast 301 346 11,500 823 Climbing Houston Center
Thu 03:21:22 PM 30.4653 -94.9603 36° Northeast 334 384 12,600 1,258 Climbing Houston Center
Thu 03:22:24 PM 30.5647 -94.8847 33° Northeast 352 405 14,100 1,248 Climbing Houston Center
Thu 03:23:27 PM 30.6494 -94.8203 33° Northeast 362 417 15,200 1,008 Climbing Houston Center
Thu 03:24:29 PM 30.7344 -94.7536 34° Northeast 368 423 16,200 968 Climbing Houston Center
Thu 03:25:31 PM 30.8222 -94.6864 33° Northeast 376 433 17,200 774 Climbing Houston Center
Thu 03:26:33 PM 30.9117 -94.6164 34° Northeast 387 445 17,800 871 Climbing Houston Center
Thu 03:27:35 PM 31.0192 -94.5328 34° Northeast 391 450 19,000 1,065 Climbing Houston Center
Thu 03:28:37 PM 31.1097 -94.4619 34° Northeast 396 456 20,000 1,008 Climbing Houston Center
Thu 03:29:40 PM 31.2022 -94.3906 33° Northeast 401 461 21,100 1,008 Climbing Houston Center
Thu 03:30:42 PM 31.2944 -94.3175 34° Northeast 403 464 22,100 968 Climbing Houston Center
Thu 03:31:44 PM 31.3889 -94.2444 33° Northeast 405 466 23,100 1,113 Climbing Houston Center
Thu 03:32:46 PM 31.5028 -94.1542 34° Northeast 410 472 24,400 1,113 Climbing Houston Center
Thu 03:33:48 PM 31.5992 -94.0794 33° Northeast 413 475 25,400 960 Climbing Houston Center
Thu 03:34:51 PM 31.6964 -94.0028 34° Northeast 419 482 26,400 1,008 Climbing Houston Center
Thu 03:35:53 PM 31.7953 -93.9239 34° Northeast 421 484 27,500 1,016 Climbing Houston Center
Thu 03:36:55 PM 31.8936 -93.8453 34° Northeast 425 489 28,500 968 Climbing Houston Center
Thu 03:37:57 PM 31.9928 -93.7669 34° Northeast 427 491 29,500 1,065 Climbing Houston Center
Thu 03:38:59 PM 32.1075 -93.6756 34° Northeast 424 488 30,700 1,113 Climbing Houston Center
Thu 03:40:01 PM 32.2089 -93.5936 34° Northeast 427 491 31,800 1,016 Climbing Houston Center
Thu 03:41:03 PM 32.3033 -93.5178 34° Northeast 423 487 32,800 1,033 Climbing Fort Worth Center
Thu 03:42:03 PM 32.4111 -93.4269 35° Northeast 428 493 33,900 893 Climbing Fort Worth Center
Thu 03:43:04 PM 32.4989 -93.3592 33° Northeast 428 493 34,600 550 Climbing Fort Worth Center
Thu 03:44:03 PM 32.6086 -93.2728 34° Northeast 428 493 35,000 202 Climbing Fort Worth Center
Thu 03:45:03 PM 32.7144 -93.1864 34° Northeast 447 514 35,000  Level Fort Worth Center
Thu 03:46:03 PM 32.8219 -93.0975 35° Northeast 464 534 35,000  Level Fort Worth Center
Thu 03:47:03 PM 32.9156 -92.9667 50° Northeast 492 566 35,000  Level Fort Worth Center
Thu 03:48:03 PM 33.0003 -92.8311 53° Northeast 505 581 35,000  Level Fort Worth Center
Thu 03:49:04 PM 33.0825 -92.6783 57° Northeast 524 603 35,000  Level Fort Worth Center
Thu 03:50:03 PM 33.1644 -92.5300 57° Northeast 529 609 35,000  Level Fort Worth Center
Thu 03:51:03 PM 33.2442 -92.3864 56° Northeast 529 609 35,000  Level Fort Worth Center
Thu 03:51:35 PM 33.2853 -92.3056 59° Northeast 527 606 35,000 261 Level Memphis Center
Thu 03:52:35 PM 33.3603 -92.1703 56° Northeast 541 623 35,400 700 Climbing Memphis Center
Thu 03:53:35 PM 33.4331 -92.0300 58° Northeast 532 612 36,400 800 Climbing Memphis Center
Thu 03:54:35 PM 33.5186 -91.8722 57° Northeast 513 590 37,000 300 Climbing Memphis Center
Thu 03:55:35 PM 33.5997 -91.7289 56° Northeast 508 585 37,000  Level Memphis Center
Thu 03:56:35 PM 33.6764 -91.5853 57° Northeast 508 585 37,000  Level Memphis Center
Thu 03:57:35 PM 33.7569 -91.4342 57° Northeast 513 590 37,000  Level Memphis Center
Thu 03:58:35 PM 33.8311 -91.3025 56° Northeast 518 596 37,000  Level Memphis Center
Thu 03:59:35 PM 33.9114 -91.1506 57° Northeast 530 610 37,000  Level Memphis Center
Thu 04:00:35 PM 33.9894 -90.9961 59° Northeast 536 617 37,000  Level Memphis Center
Thu 04:01:35 PM 34.0717 -90.8436 57° Northeast 536 617 37,000  Level Memphis Center
Thu 04:02:35 PM 34.1494 -90.6936 58° Northeast 536 617 37,000  Level Memphis Center
Thu 04:03:35 PM 34.2311 -90.5406 57° Northeast 536 617 37,000  Level Memphis Center
Thu 04:04:35 PM 34.3189 -90.3722 58° Northeast 542 624 37,000  Level Memphis Center
Thu 04:05:35 PM 34.3981 -90.2186 58° Northeast 535 616 37,000  Level Memphis Center
Thu 04:06:35 PM 34.4750 -90.0650 59° Northeast 540 621 37,000  Level Memphis Center
Thu 04:07:35 PM 34.5558 -89.9083 58° Northeast 540 621 37,000  Level Memphis Center
Thu 04:08:35 PM 34.6325 -89.7514 59° Northeast 540 621 37,000  Level Memphis Center
Thu 04:09:35 PM 34.7128 -89.5917 59° Northeast 545 627 37,000  Level Memphis Center
Thu 04:10:35 PM 34.7953 -89.4367 57° Northeast 550 633 37,000  Level Memphis Center
Thu 04:11:35 PM 34.8753 -89.2814 58° Northeast 543 625 37,000  Level Memphis Center
Thu 04:12:35 PM 34.9531 -89.1233 59° Northeast 543 625 37,000  Level Memphis Center
Thu 04:13:35 PM 35.0350 -88.9622 58° Northeast 543 625 37,000  Level Memphis Center
Thu 04:14:35 PM 35.1144 -88.8036 58° Northeast 548 631 37,000  Level Memphis Center
Thu 04:15:36 PM 35.1956 -88.6369 59° Northeast 557 641 37,000  Level Memphis Center
Thu 04:16:35 PM 35.2606 -88.5083 58° Northeast 557 641 37,000  Level Memphis Center
Thu 04:17:35 PM 35.3578 -88.3178 58° Northeast 552 635 37,000  Level Memphis Center
Thu 04:18:35 PM 35.4281 -88.1658 60° Northeast 552 635 37,000  Level Memphis Center
Thu 04:19:35 PM 35.5144 -87.9925 58° Northeast 547 629 37,000  Level Memphis Center
Thu 04:20:35 PM 35.5906 -87.8294 60° Northeast 547 629 37,000  Level Memphis Center
Thu 04:21:35 PM 35.6747 -87.6633 58° Northeast 547 629 37,000  Level Memphis Center
Thu 04:22:35 PM 35.7525 -87.4997 60° Northeast 556 640 37,000  Level Memphis Center
Thu 04:23:35 PM 35.8319 -87.3331 60° Northeast 561 646 37,000  Level Memphis Center
Thu 04:24:36 PM 35.9069 -87.1714 60° Northeast 553 636 37,000  Level Memphis Center
Thu 04:25:35 PM 35.9839 -87.0044 60° Northeast 553 636 37,000  Level Memphis Center
Thu 04:26:35 PM 36.0628 -86.8392 59° Northeast 561 646 37,000  Level Memphis Center
Thu 04:27:35 PM 36.1458 -86.6814 57° Northeast 556 640 37,000 -50 Level Memphis Center
Thu 04:28:35 PM 36.2544 -86.5556 43° Northeast 529 609 36,900 -600 Descending Memphis Center
Thu 04:29:35 PM 36.3589 -86.4272 45° Northeast 529 609 35,800 -1,550 Descending Memphis Center
Thu 04:30:35 PM 36.4525 -86.2911 49° Northeast 514 592 33,800 -1,388 Descending Memphis Center
Thu 04:31:36 PM 36.5497 -86.1467 50° Northeast 527 606 33,000 -400 Descending Memphis Center
Thu 04:32:35 PM 36.6450 -86.0019 51° Northeast 539 620 33,000 -882 Level Memphis Center
Thu 04:33:52 PM 36.7603 -85.8272 50° Northeast 552 635 31,000 -2,288 Descending Indianapolis Center
Thu 04:34:54 PM 36.8547 -85.6839 51° Northeast 536 617 27,700 -3,000 Descending Indianapolis Center
Thu 04:35:56 PM 36.9292 -85.5286 59° Northeast 517 595 24,800 -2,032 Descending Indianapolis Center
Thu 04:36:58 PM 37.0186 -85.3711 55° Northeast 497 572 23,500 -1,500 Descending Indianapolis Center
Thu 04:38:00 PM 37.1114 -85.2456 47° Northeast 502 578 21,700 -1,984 Descending Indianapolis Center
Thu 04:39:02 PM 37.1981 -85.1250 48° Northeast 470 541 19,400 -2,565 Descending Indianapolis Center
Thu 04:40:04 PM 37.2864 -84.9944 50° Northeast 427 491 16,400 -2,661 Descending Indianapolis Center
Thu 04:41:06 PM 37.3617 -84.8897 48° Northeast 408 470 13,900 -2,081 Descending Indianapolis Center
Thu 04:42:08 PM 37.4333 -84.7858 49° Northeast 394 453 12,100 -1,324 Descending Indianapolis Center
Thu 04:43:22 PM 37.5219 -84.7406 22° Northeast 351 404 10,900 -1,445 Descending Indianapolis Center
Thu 04:44:25 PM 37.6253 -84.7217 North 288 331 8,800 -1,920 Descending Indianapolis Center
Thu 04:45:27 PM 37.6972 -84.7092 North 268 308 6,900 -1,645 Descending Indianapolis Center
Thu 04:46:29 PM 37.7653 -84.6983 North 253 291 5,400 -1,645 Descending Indianapolis Center
Thu 04:47:31 PM 37.8342 -84.6864 North 251 289 3,500 -1,161 Descending Indianapolis Center
Thu 04:48:33 PM 37.9017 -84.6722 North 248 285 3,000 -387 Descending Indianapolis Center
Thu 04:49:35 PM 37.9617 -84.6586 10° North 236 272 2,700 -290 Descending Indianapolis Center

Login

Don't have an account? Register now (free) for customized features, flight alerts, and more!